AirNav   Everest Fuels
 
 1641 users online  

84MO Holiday Inn Westport Heliport
St Louis, Missouri, USA

GOING TO ST LOUIS?


FAA INFORMATION EFFECTIVE 17 JUNE 2021

Location

FAA Identifier: 84MO
Lat/Long: 38-41-38.1870N 090-26-55.4270W
38-41.636450N 090-26.923783W
38.6939408,-90.4487297
(estimated)
Elevation: 600 ft. / 183 m (estimated)
Variation: 02E (1985)
From city: 15 miles NW of ST LOUIS, MO
Time zone: UTC -5 (UTC -6 during Standard Time)
Zip code: 63146

Heliport Operations

Heliport use: Private use. Permission required prior to landing
Activation date: 04/1983
Control tower: no
ARTCC: KANSAS CITY CENTER
FSS: SAINT LOUIS FLIGHT SERVICE STATION
Attendance: DAWN-2300
Wind indicator: no
Segmented circle: yes

Heliport Communications

WX ASOS at STL (5 nm NE): PHONE 314-890-4790
WX ASOS at SUS (10 nm W): 134.8 (314-890-7255)
WX ASOS at SET (14 nm N): 118.075 (636-250-4590)
WX ASOS at CPS (16 nm SE): PHONE 618-332-0001

Nearby radio navigation aids

VOR radial/distance  VOR name  Freq  Var
STLr170/10.1ST LOUIS VORTAC117.4001E
FTZr085/24.5FORISTELL VORTAC110.8005E
TOYr260/25.0TROY VORTAC116.0004E

 
NDB name  Hdg/Dist  Freq  Var  ID
EAVES079/4.722701WFZ ..-. --..
CIVIC MEMORIAL238/21.926301WCVM -.-. ...- --

Heliport Services

Runway Information

Helipad H1

Dimensions: 86 x 86 ft. / 26 x 26 m
Surface: asphalt/concrete
Latitude: 38-41.636500N
Longitude: 090-26.923833W
Elevation: 600.0 ft.
Traffic pattern: leftleft

Heliport Ownership and Management from official FAA records

Ownership: Privately-owned
Owner: DOUBLETREE ST. LOUIS AT WESTPORT
1973 CRAIGSHIRE DR.
ST. LOUIS, MO 63146
Phone 573-434-0100
ANITA M. SUMNER, ST. LOUIS HOTEL CORP.
Manager: DAN GOUGH
1973 CRAIGSHIRE DRIVE
ST. LOUIS, MO 63146
Phone 314-434-0100

Additional Remarks

FOR CD CTC ST LOUIS APCH AT 314-890-1018.

Instrument Procedures

There are no published instrument procedures at 84MO.

Some nearby airports with instrument procedures:

1H0 - Creve Coeur Airport (3 nm NW)
KSTL - St Louis Lambert International Airport (5 nm NE)
KSUS - Spirit of St Louis Airport (10 nm W)
KSET - St Charles County Smartt Airport (14 nm N)
KCPS - St Louis Downtown Airport (16 nm SE)
 
Loc | Ops | Rwys | IFR | FBO | Links
Com | Nav | Svcs | Stats | Notes
Area around 84MO (Holiday Inn Westport Heliport)
 
Road maps at: MapQuest Bing Google
 
Aerial photo
No photo
 
Sectional chart

 
Airport distance calculator
Flying to Holiday Inn Westport Heliport? Find the distance to fly.

From to 84MO

Sunrise and sunset
Times for 24-Jun-2021
 Local
(UTC-5)
 Zulu
(UTC)
Morning civil twilight05:0710:07
Sunrise05:3910:39
Sunset20:2901:29
Evening civil twilight21:0102:01

Current date and time
Zulu (UTC)  24-Jun-2021 19:09:06
Local (UTC-5)  24-Jun-2021 14:09:06
 
METAR
KSTL 
5nm NE 
241851Z 21008KT 10SM FEW050 SCT070 BKN160 OVC250 27/21 A2999 RMK AO2 SLP146 RAE41 TSE22 P0000 T02720211
KSUS 
10nm W 
241854Z 14004KT 10SM CLR 25/22 A2996 RMK AO2 RAE31 TSE1758 PRESFR SLP136 P0000 T02500222
KSET 
14nm N 
241854Z AUTO 17008KT 10SM FEW120 26/22 A2996 RMK AO2 RAE1756B08E31 SLP139 P0001 T02610217 $
KCPS 
16nm SE 
241853Z 17005KT 10SM SCT032 28/22 A2998 RMK AO2 SLP149 T02780222
TAF
KSTL 
5nm NE 
241723Z 2418/2524 19008KT P6SM VCTS OVC050CB TEMPO 2418/2420 3SM TSRA FM242100 18012G18KT P6SM BKN050 FM250700 19011KT 4SM SHRA BR VCTS OVC040CB FM251300 19010KT P6SM BKN035 FM252000 20011KT P6SM SHRA VCTS BKN045CB
KSUS 
10nm W 
241723Z 2418/2518 20008KT P6SM VCTS OVC050CB TEMPO 2418/2420 3SM TSRA FM242100 18012KT P6SM BKN050 FM250700 19009KT 4SM SHRA BR VCTS OVC040CB FM251300 19009KT P6SM BKN035
KCPS 
16nm SE 
241723Z 2418/2518 19008KT P6SM OVC050 FM241900 19009KT P6SM VCTS OVC050CB FM242100 18011G18KT P6SM BKN050 FM250800 19010KT 4SM SHRA BR VCTS OVC040CB FM251400 19009KT P6SM BKN035
NOTAMs
Click for the latest NOTAMs
NOTAMs are issued by the DoD/FAA and will open in a separate window not controlled by AirNav.

 

 
 

Would you like to see your business listed on this page?

 If your business provides an interesting product or service to pilots, flight crews, aircraft, or users of the Holiday Inn Westport Heliport, you should consider listing it here.  To start the listing process, click on the button below
 
Add a business
 

Other Pages about Holiday Inn Westport Heliport

Update a link
 
Copyright © AirNav, LLC. All rights reserved. Privacy Policy  Contact